Mc Connelsville, Ohio
Current Conditions -  °F | °C
As of 9:05 AM on Saturday 22 Nov 2014 (Local Time) from KZZV Reporting Station
Freezing Rain Freezing Rain  
Wind Chill: 20°   Ceiling: 4300
Heat Index: 29°   Visibility: 6mi
Dew Point: 24°   Wind: 9mph
Humidity: 82%   Direction: 170°S
Pressure: 30.31"   Gusts: NA
Location:  39.67°N, 81.8376°W
Report Text: KZZV 221405Z AUTO 17008KT 6SM -FZRA SCT023 BKN043 OVC060 M02/M04 A3031 RMK AO2 P0001 I1001 T10171044
Loading
Personal Weather Stations






























Interactive Weather Map New forecast layout! Learn more

10-Day Weather Forecast

Advertisements
Track Severe Weather on mobile